createdAt,value
2023-03-30T00:01:15.070Z,9.05
2023-03-30T00:03:44.895Z,9.02
2023-03-30T00:06:21.208Z,9.75
2023-03-30T00:08:49.574Z,8.70
2023-03-30T00:11:19.975Z,8.32
2023-03-30T00:13:48.118Z,8.23
2023-03-30T00:16:17.054Z,5.65
2023-03-30T00:18:45.795Z,8.77
2023-03-30T00:21:18.465Z,8.38
2023-03-30T00:23:48.222Z,7.88
2023-03-30T00:26:17.398Z,8.30
2023-03-30T00:28:47.315Z,6.97
2023-03-30T00:31:16.680Z,7.35
2023-03-30T00:33:46.826Z,6.25
2023-03-30T00:36:17.262Z,5.55
2023-03-30T00:38:48.496Z,5.93
2023-03-30T00:41:17.869Z,5.57
2023-03-30T00:44:01.794Z,6.57
2023-03-30T00:46:31.150Z,5.53
2023-03-30T00:49:04.151Z,5.65
2023-03-30T00:51:34.040Z,7.40
2023-03-30T00:54:07.276Z,3.60
2023-03-30T00:56:36.051Z,6.32
2023-03-30T00:59:06.425Z,5.18
2023-03-30T01:01:39.050Z,8.52
2023-03-30T01:04:10.085Z,5.63
2023-03-30T01:06:40.305Z,5.28
2023-03-30T01:09:09.536Z,7.45
2023-03-30T01:11:37.791Z,7.68
2023-03-30T01:14:09.713Z,6.03
2023-03-30T01:16:43.477Z,6.45
2023-03-30T01:19:40.396Z,8.77
2023-03-30T01:22:28.832Z,7.15
2023-03-30T01:25:20.992Z,5.55
2023-03-30T01:28:22.431Z,8.23
2023-03-30T01:34:02.262Z,6.82
2023-03-30T01:36:58.036Z,6.55
2023-03-30T01:39:36.520Z,5.60
2023-03-30T01:42:13.067Z,7.35
2023-03-30T01:44:48.148Z,8.70
2023-03-30T01:47:21.123Z,7.03
2023-03-30T01:49:57.370Z,6.95
2023-03-30T01:52:30.517Z,6.50
2023-03-30T01:55:04.879Z,7.65
2023-03-30T01:57:37.119Z,9.80
2023-03-30T02:00:14.377Z,11.25
2023-03-30T02:02:45.927Z,8.95
2023-03-30T02:05:18.026Z,11.55
2023-03-30T02:07:51.078Z,9.75
2023-03-30T02:10:22.908Z,11.32
2023-03-30T02:12:52.569Z,11.40
2023-03-30T02:15:21.309Z,12.70
2023-03-30T02:17:50.024Z,10.85
2023-03-30T02:20:19.068Z,12.00
2023-03-30T02:22:47.802Z,10.73
2023-03-30T02:25:16.220Z,9.63
2023-03-30T02:27:46.840Z,13.93
2023-03-30T02:30:15.866Z,9.93
2023-03-30T02:32:46.984Z,7.85
2023-03-30T02:35:22.508Z,12.85
2023-03-30T02:38:13.018Z,8.90
2023-03-30T02:40:44.854Z,10.27
2023-03-30T02:43:25.148Z,10.80
2023-03-30T02:45:55.131Z,11.20
2023-03-30T02:48:33.292Z,7.88
2023-03-30T02:51:19.181Z,9.90
2023-03-30T02:53:50.359Z,9.65
2023-03-30T02:56:25.273Z,10.00
2023-03-30T02:58:57.666Z,8.48
2023-03-30T03:01:29.984Z,10.25
2023-03-30T03:03:59.429Z,9.77
2023-03-30T03:06:28.260Z,10.77
2023-03-30T03:08:57.589Z,12.00
2023-03-30T03:11:26.098Z,8.57
2023-03-30T03:13:56.628Z,8.82
2023-03-30T03:16:25.075Z,9.73
2023-03-30T03:18:53.744Z,8.57
2023-03-30T03:21:21.941Z,8.32
2023-03-30T03:23:50.576Z,7.80
2023-03-30T03:26:18.850Z,7.00
2023-03-30T03:28:47.390Z,7.97
2023-03-30T03:31:17.063Z,7.78
2023-03-30T03:33:46.106Z,7.65
2023-03-30T03:36:14.391Z,10.20
2023-03-30T03:38:42.992Z,6.68
2023-03-30T03:41:11.282Z,10.35
2023-03-30T03:43:39.732Z,7.88
2023-03-30T03:46:08.204Z,8.02
2023-03-30T03:48:38.543Z,10.95
2023-03-30T03:51:07.174Z,7.68
2023-03-30T03:53:35.814Z,11.57
2023-03-30T03:56:04.165Z,9.55
2023-03-30T03:58:32.741Z,8.00
2023-03-30T04:01:02.041Z,10.25
2023-03-30T04:03:30.865Z,12.90
2023-03-30T04:06:03.695Z,11.68
2023-03-30T04:08:32.237Z,10.35
2023-03-30T04:11:08.006Z,8.80
2023-03-30T04:13:36.860Z,10.98
2023-03-30T04:16:05.477Z,10.02
2023-03-30T04:18:34.698Z,15.82
2023-03-30T04:21:05.788Z,12.18
2023-03-30T04:23:35.026Z,9.10
2023-03-30T04:26:04.664Z,10.68
2023-03-30T04:28:34.461Z,8.23
2023-03-30T04:31:04.510Z,8.45
2023-03-30T04:33:34.965Z,8.35
2023-03-30T04:36:04.780Z,8.98
2023-03-30T04:38:33.379Z,9.57
2023-03-30T04:41:02.429Z,9.18
2023-03-30T04:43:31.505Z,12.25
2023-03-30T04:45:59.900Z,11.95
2023-03-30T04:48:28.551Z,11.20
2023-03-30T04:50:59.129Z,10.67
2023-03-30T04:53:29.229Z,12.07
2023-03-30T04:55:57.443Z,10.88
2023-03-30T04:58:26.140Z,10.00
2023-03-30T05:00:54.773Z,11.68
2023-03-30T05:03:23.677Z,10.77
2023-03-30T05:05:52.099Z,12.85
2023-03-30T05:08:20.915Z,13.15
2023-03-30T05:10:50.800Z,12.25
2023-03-30T05:13:19.547Z,11.80
2023-03-30T05:15:54.319Z,11.52
2023-03-30T05:18:22.966Z,10.70
2023-03-30T05:20:51.557Z,11.85
2023-03-30T05:23:20.037Z,9.48
2023-03-30T05:25:51.634Z,13.40
2023-03-30T05:28:21.088Z,12.23
2023-03-30T05:30:54.764Z,14.13
2023-03-30T05:33:24.672Z,11.85
2023-03-30T05:35:56.616Z,17.25
2023-03-30T05:38:28.922Z,11.77
2023-03-30T05:40:59.640Z,10.73
2023-03-30T05:43:28.833Z,10.70
2023-03-30T05:45:58.065Z,11.00
2023-03-30T05:48:27.085Z,12.65
2023-03-30T05:50:55.939Z,10.15
2023-03-30T05:53:25.322Z,10.68
2023-03-30T05:55:54.009Z,10.65
2023-03-30T05:58:24.880Z,11.88
2023-03-30T06:00:54.488Z,11.10
2023-03-30T06:03:23.934Z,11.52
2023-03-30T06:05:54.624Z,11.88
2023-03-30T06:08:23.847Z,14.02
2023-03-30T06:10:56.585Z,12.02
2023-03-30T06:13:27.523Z,10.43
2023-03-30T06:15:57.157Z,14.00
2023-03-30T06:18:26.589Z,12.70
2023-03-30T06:20:55.628Z,10.90
2023-03-30T06:23:25.262Z,9.68
2023-03-30T06:25:55.309Z,8.65
2023-03-30T06:28:25.267Z,8.23
2023-03-30T06:30:55.674Z,10.65
2023-03-30T06:33:25.736Z,10.18
2023-03-30T06:35:55.648Z,11.70
2023-03-30T06:38:25.041Z,10.07
2023-03-30T06:40:53.581Z,9.20
2023-03-30T06:43:24.080Z,8.13
2023-03-30T06:45:54.918Z,9.15
2023-03-30T06:48:25.150Z,10.50
2023-03-30T06:50:54.622Z,9.57
2023-03-30T06:53:23.709Z,10.02
2023-03-30T06:55:53.567Z,12.68
2023-03-30T06:58:22.905Z,9.55
2023-03-30T07:00:51.899Z,8.57
2023-03-30T07:03:22.109Z,8.90
2023-03-30T07:05:51.984Z,10.40
2023-03-30T07:08:21.608Z,11.63
2023-03-30T07:10:51.456Z,9.30
2023-03-30T07:13:19.764Z,10.98
2023-03-30T07:15:48.970Z,12.10
2023-03-30T07:18:17.761Z,8.65
2023-03-30T07:20:48.420Z,9.25
2023-03-30T07:23:16.794Z,8.52
2023-03-30T07:25:46.006Z,7.97
2023-03-30T07:28:15.352Z,8.45
2023-03-30T07:30:44.431Z,11.27
2023-03-30T07:33:12.980Z,8.48
2023-03-30T07:35:45.067Z,7.85
2023-03-30T07:38:15.625Z,10.10
2023-03-30T07:40:44.288Z,8.15
2023-03-30T07:43:12.756Z,8.10
2023-03-30T07:45:41.475Z,7.75
2023-03-30T07:48:10.257Z,7.60
2023-03-30T07:50:39.289Z,4.70
2023-03-30T07:53:08.431Z,7.65
2023-03-30T07:55:38.436Z,5.25
2023-03-30T07:58:07.961Z,5.05
2023-03-30T08:00:37.758Z,6.03
2023-03-30T08:03:06.537Z,4.88
2023-03-30T08:05:35.816Z,4.70
2023-03-30T08:08:04.454Z,4.95
2023-03-30T08:10:33.981Z,6.20
2023-03-30T08:13:04.810Z,4.88
2023-03-30T08:15:33.920Z,6.07
2023-03-30T08:18:06.898Z,10.00
2023-03-30T08:20:36.532Z,6.63
2023-03-30T08:23:05.447Z,8.13
2023-03-30T08:25:34.759Z,4.95
2023-03-30T08:28:05.934Z,7.30
2023-03-30T08:30:35.151Z,6.68
2023-03-30T08:33:04.044Z,6.57
2023-03-30T08:35:32.824Z,6.47
2023-03-30T08:38:01.277Z,4.47
2023-03-30T08:40:30.527Z,6.28
2023-03-30T08:43:11.600Z,5.68
2023-03-30T08:45:42.863Z,6.00
2023-03-30T08:48:17.160Z,7.03
2023-03-30T08:50:49.474Z,4.05
2023-03-30T08:53:17.992Z,6.97
2023-03-30T08:55:48.627Z,7.47
2023-03-30T08:58:25.121Z,6.43
2023-03-30T09:00:57.610Z,6.18
2023-03-30T09:03:29.539Z,10.00
2023-03-30T09:06:01.957Z,8.88
2023-03-30T09:08:32.267Z,6.03
2023-03-30T09:11:02.619Z,5.93
2023-03-30T09:13:35.157Z,5.00
2023-03-30T09:16:11.757Z,5.95
2023-03-30T09:18:45.370Z,6.97
2023-03-30T09:21:14.910Z,4.07
2023-03-30T09:23:44.358Z,4.75
2023-03-30T09:26:20.724Z,4.95
2023-03-30T09:28:57.805Z,5.65
2023-03-30T09:31:32.322Z,6.00
2023-03-30T09:34:07.894Z,6.10
2023-03-30T09:36:41.427Z,8.82
2023-03-30T09:39:19.893Z,5.35
2023-03-30T09:42:00.273Z,5.35
2023-03-30T09:44:37.564Z,4.25
2023-03-30T09:47:20.822Z,5.10
2023-03-30T09:49:50.162Z,4.38
2023-03-30T09:52:22.122Z,5.53
2023-03-30T09:54:51.351Z,4.38
2023-03-30T09:57:29.255Z,4.57
2023-03-30T10:00:01.093Z,4.30
2023-03-30T10:02:31.710Z,7.07
2023-03-30T10:05:03.655Z,3.53
2023-03-30T10:07:34.996Z,7.70
2023-03-30T10:10:15.330Z,4.57
2023-03-30T10:12:44.387Z,5.13
2023-03-30T10:15:19.760Z,5.53
2023-03-30T10:17:51.583Z,5.40
2023-03-30T10:20:27.033Z,5.25
2023-03-30T10:22:57.347Z,7.40
2023-03-30T10:25:29.782Z,5.45
2023-03-30T10:28:01.546Z,7.47
2023-03-30T10:30:33.051Z,4.07
2023-03-30T10:35:35.982Z,4.63
2023-03-30T10:38:05.958Z,5.20
2023-03-30T10:40:36.892Z,3.40
2023-03-30T10:43:07.853Z,3.67
2023-03-30T10:45:40.926Z,3.25
2023-03-30T10:48:36.229Z,3.97
2023-03-30T10:51:12.290Z,4.78
2023-03-30T10:53:48.069Z,5.10
2023-03-30T10:56:24.281Z,5.03
2023-03-30T10:59:06.264Z,6.13
2023-03-30T11:01:43.986Z,5.30
2023-03-30T11:04:23.537Z,3.90
2023-03-30T11:06:54.709Z,3.90
2023-03-30T11:09:26.245Z,5.80
2023-03-30T11:11:57.746Z,4.13
2023-03-30T11:14:29.366Z,4.80
2023-03-30T11:17:02.007Z,3.80
2023-03-30T11:19:33.538Z,6.38
2023-03-30T11:22:06.829Z,8.45
2023-03-30T11:24:35.648Z,6.95
2023-03-30T11:27:06.927Z,7.30
2023-03-30T11:32:17.872Z,3.87
2023-03-30T11:34:55.067Z,5.80
2023-03-30T11:37:30.005Z,8.43
2023-03-30T11:40:04.261Z,7.50
2023-03-30T11:42:33.606Z,6.88
2023-03-30T11:45:02.881Z,4.75
2023-03-30T11:47:46.887Z,7.57
2023-03-30T11:50:25.684Z,10.52
2023-03-30T11:53:01.231Z,8.48
2023-03-30T11:55:40.969Z,9.30
2023-03-30T11:58:16.055Z,6.45
2023-03-30T12:00:50.872Z,9.73
2023-03-30T12:03:37.570Z,8.82
2023-03-30T12:06:23.594Z,6.68
2023-03-30T12:09:02.981Z,8.65
2023-03-30T12:11:36.603Z,4.60
2023-03-30T12:14:13.869Z,6.35
2023-03-30T12:16:47.056Z,6.15
2023-03-30T12:19:18.913Z,7.18
2023-03-30T12:21:53.441Z,10.05
2023-03-30T12:24:24.992Z,6.65
2023-03-30T12:32:12.328Z,7.50
2023-03-30T12:34:45.192Z,11.23
2023-03-30T12:37:15.035Z,9.07
2023-03-30T12:39:49.143Z,11.70
2023-03-30T12:42:34.838Z,11.70
2023-03-30T12:45:37.544Z,7.35
2023-03-30T12:48:30.732Z,12.45
2023-03-30T12:51:09.174Z,13.23
2023-03-30T12:54:01.963Z,9.25
2023-03-30T12:56:38.593Z,15.05
2023-03-30T12:59:30.813Z,14.25
2023-03-30T13:02:05.732Z,10.88
2023-03-30T13:04:37.906Z,8.07
2023-03-30T13:07:08.982Z,9.38
2023-03-30T13:09:54.694Z,8.27
2023-03-30T13:12:32.590Z,9.13
2023-03-30T13:15:03.671Z,7.93
2023-03-30T13:20:29.115Z,8.57
2023-03-30T13:23:22.818Z,8.15
2023-03-30T13:25:54.508Z,12.52
2023-03-30T13:28:48.816Z,9.23
2023-03-30T13:31:27.949Z,9.15
2023-03-30T13:34:01.683Z,9.35
2023-03-30T13:36:31.982Z,8.95
2023-03-30T13:39:07.693Z,13.30
2023-03-30T13:41:47.946Z,13.00
2023-03-30T13:44:34.158Z,9.32
2023-03-30T13:47:11.581Z,10.88
2023-03-30T13:49:47.973Z,11.82
2023-03-30T13:52:19.105Z,13.80
2023-03-30T13:54:49.265Z,20.60
2023-03-30T13:57:20.908Z,12.05
2023-03-30T13:59:52.488Z,9.30
2023-03-30T14:04:50.890Z,9.98
2023-03-30T14:07:21.177Z,14.07
2023-03-30T14:10:08.702Z,11.82
2023-03-30T14:12:39.745Z,10.52
2023-03-30T14:15:18.166Z,11.15
2023-03-30T14:17:52.172Z,10.07
2023-03-30T14:20:29.867Z,11.82
2023-03-30T14:23:00.492Z,13.65
2023-03-30T14:25:33.471Z,7.60
2023-03-30T14:28:04.611Z,12.73
2023-03-30T14:33:08.069Z,9.75
2023-03-30T14:35:41.382Z,8.93
2023-03-30T14:38:17.233Z,9.60
2023-03-30T14:40:48.068Z,15.38
2023-03-30T14:43:19.902Z,11.93
2023-03-30T14:45:48.655Z,10.20
2023-03-30T14:48:24.021Z,11.40
2023-03-30T14:50:52.563Z,12.88
2023-03-30T14:53:25.573Z,9.00
2023-03-30T14:55:57.346Z,12.77
2023-03-30T14:58:27.021Z,9.30
2023-03-30T15:00:58.892Z,10.38
2023-03-30T15:03:33.874Z,10.50
2023-03-30T15:06:04.223Z,15.88
2023-03-30T15:08:34.479Z,15.25
2023-03-30T15:11:09.199Z,12.17
2023-03-30T15:13:39.356Z,18.20
2023-03-30T15:16:08.580Z,14.43
2023-03-30T15:18:38.024Z,15.65
2023-03-30T15:21:09.936Z,11.88
2023-03-30T15:23:42.134Z,13.52
2023-03-30T15:26:13.454Z,15.88
2023-03-30T15:28:44.761Z,18.02
2023-03-30T15:31:16.496Z,17.05
2023-03-30T15:36:15.803Z,13.75
2023-03-30T15:38:47.857Z,14.77
2023-03-30T15:41:19.244Z,14.70
2023-03-30T15:43:56.050Z,16.15
2023-03-30T15:46:25.189Z,15.25
2023-03-30T15:48:54.680Z,15.23
2023-03-30T15:51:27.979Z,12.95
2023-03-30T15:53:59.568Z,21.40
2023-03-30T15:56:32.846Z,20.65
2023-03-30T15:59:01.770Z,20.52
2023-03-30T16:01:43.453Z,19.13
2023-03-30T16:04:15.257Z,27.23
2023-03-30T16:06:46.727Z,17.75
2023-03-30T16:09:16.094Z,21.23
2023-03-30T16:11:47.120Z,15.18
2023-03-30T16:14:18.446Z,18.13
2023-03-30T16:16:47.071Z,18.00
2023-03-30T16:19:17.577Z,20.02
2023-03-30T16:21:46.342Z,17.50
2023-03-30T16:24:14.859Z,16.10
2023-03-30T16:26:46.866Z,22.50
2023-03-30T16:31:45.313Z,17.13
2023-03-30T16:34:13.696Z,13.30
2023-03-30T16:36:44.210Z,13.73
2023-03-30T16:39:18.257Z,12.73
2023-03-30T16:41:49.682Z,14.43
2023-03-30T16:44:18.650Z,14.30
2023-03-30T16:46:47.682Z,16.65
2023-03-30T16:49:17.779Z,17.33
2023-03-30T16:51:46.683Z,12.43
2023-03-30T16:54:29.646Z,23.92
2023-03-30T16:57:02.432Z,23.95
2023-03-30T16:59:32.920Z,24.05
2023-03-30T17:02:03.228Z,19.65
2023-03-30T17:04:31.765Z,18.48
2023-03-30T17:07:00.976Z,16.45
2023-03-30T17:09:30.060Z,21.25
2023-03-30T17:11:58.836Z,21.00
2023-03-30T17:14:30.681Z,18.73
2023-03-30T17:16:59.496Z,22.73
2023-03-30T17:19:29.223Z,22.13
2023-03-30T17:21:58.076Z,26.10
2023-03-30T17:24:26.523Z,22.58
2023-03-30T17:26:56.316Z,18.00
2023-03-30T17:29:24.758Z,23.05
2023-03-30T17:31:55.015Z,19.20
2023-03-30T17:34:23.433Z,21.45
2023-03-30T17:36:51.985Z,24.35
2023-03-30T17:39:20.585Z,20.65
2023-03-30T17:41:49.384Z,18.42
2023-03-30T17:44:17.625Z,31.40
2023-03-30T17:46:46.371Z,29.95
2023-03-30T17:49:18.548Z,26.25
2023-03-30T17:51:47.281Z,17.08
2023-03-30T17:54:15.876Z,23.23
2023-03-30T17:56:44.813Z,22.40
2023-03-30T17:59:13.539Z,21.70
2023-03-30T18:01:42.343Z,20.85
2023-03-30T18:04:10.863Z,22.77
2023-03-30T18:06:41.842Z,22.67
2023-03-30T18:09:15.705Z,21.35
2023-03-30T18:11:44.552Z,19.40
2023-03-30T18:14:12.875Z,26.85
2023-03-30T18:16:43.805Z,23.20
2023-03-30T18:19:13.320Z,23.73
2023-03-30T18:21:43.508Z,22.10
2023-03-30T18:24:12.203Z,20.92
2023-03-30T18:26:43.112Z,18.30
2023-03-30T18:29:20.541Z,17.58
2023-03-30T18:31:49.514Z,16.90
2023-03-30T18:34:19.751Z,18.67
2023-03-30T18:36:50.130Z,17.33
2023-03-30T18:39:20.185Z,17.98
2023-03-30T18:41:49.121Z,17.85
2023-03-30T18:44:17.975Z,19.95
2023-03-30T18:46:48.299Z,18.95
2023-03-30T18:49:17.491Z,19.88
2023-03-30T18:51:46.475Z,22.63
2023-03-30T18:54:16.253Z,21.38
2023-03-30T18:56:46.118Z,18.50
2023-03-30T18:59:15.045Z,17.85
2023-03-30T19:01:46.005Z,14.77
2023-03-30T19:04:14.423Z,19.83
2023-03-30T19:06:44.618Z,20.10
2023-03-30T19:09:12.940Z,22.88
2023-03-30T19:11:43.150Z,20.88
2023-03-30T19:14:12.268Z,22.15
2023-03-30T19:16:42.121Z,20.77
2023-03-30T19:19:14.927Z,22.85
2023-03-30T19:21:46.723Z,26.05
2023-03-30T19:24:15.265Z,25.23
2023-03-30T19:26:45.479Z,27.80
2023-03-30T19:29:14.441Z,32.42
2023-03-30T19:31:43.221Z,40.78
2023-03-30T19:34:11.897Z,28.75
2023-03-30T19:36:40.742Z,17.50
2023-03-30T19:39:09.370Z,21.20
2023-03-30T19:41:38.133Z,23.40
2023-03-30T19:44:07.981Z,20.58
2023-03-30T19:46:37.970Z,19.88
2023-03-30T19:49:06.999Z,21.42
2023-03-30T19:51:35.693Z,23.13
2023-03-30T19:54:04.590Z,23.17
2023-03-30T19:56:33.482Z,25.67
2023-03-30T19:59:01.882Z,26.67
2023-03-30T20:01:32.073Z,28.50
2023-03-30T20:04:00.894Z,24.95
2023-03-30T20:06:29.595Z,32.28
2023-03-30T20:08:57.984Z,36.15
2023-03-30T20:11:26.687Z,34.08
2023-03-30T20:13:55.671Z,27.50
2023-03-30T20:16:26.179Z,30.08
2023-03-30T20:18:57.248Z,23.58
2023-03-30T20:23:58.758Z,20.95
2023-03-30T20:26:27.809Z,19.25
2023-03-30T20:28:56.714Z,18.90
2023-03-30T20:31:25.826Z,16.58
2023-03-30T20:33:55.933Z,19.50
2023-03-30T20:36:26.069Z,21.00
2023-03-30T20:38:55.484Z,20.40
2023-03-30T20:41:25.053Z,18.33
2023-03-30T20:43:57.365Z,18.50
2023-03-30T20:46:35.571Z,18.98
2023-03-30T20:49:06.133Z,15.75
2023-03-30T20:51:35.199Z,17.88
2023-03-30T20:54:03.493Z,16.00
2023-03-30T20:56:32.766Z,15.98
2023-03-30T20:59:02.970Z,15.23
2023-03-30T21:01:32.088Z,16.77
2023-03-30T21:04:02.608Z,19.40
2023-03-30T21:06:33.461Z,16.73
2023-03-30T21:09:05.129Z,15.50
2023-03-30T21:11:38.836Z,18.83
2023-03-30T21:14:08.012Z,17.30
2023-03-30T21:16:38.203Z,16.23
2023-03-30T21:19:07.143Z,18.92
2023-03-30T21:21:39.063Z,16.30
2023-03-30T21:24:08.942Z,16.50
2023-03-30T21:26:38.182Z,15.25
2023-03-30T21:29:07.017Z,21.15
2023-03-30T21:31:35.654Z,18.52
2023-03-30T21:34:04.306Z,18.38
2023-03-30T21:36:32.980Z,19.58
2023-03-30T21:39:02.997Z,18.25
2023-03-30T21:41:31.749Z,19.08
2023-03-30T21:44:00.114Z,19.20
2023-03-30T21:46:29.302Z,17.83
2023-03-30T21:48:57.593Z,16.73
2023-03-30T21:51:28.174Z,19.48
2023-03-30T21:53:57.325Z,17.10
2023-03-30T21:56:29.898Z,22.25
2023-03-30T21:58:58.527Z,19.48
2023-03-30T22:01:27.513Z,19.60
2023-03-30T22:03:56.742Z,22.90
2023-03-30T22:06:25.871Z,18.17
2023-03-30T22:08:54.202Z,19.23
2023-03-30T22:11:24.043Z,22.15
2023-03-30T22:13:55.474Z,17.85
2023-03-30T22:16:25.970Z,19.02
2023-03-30T22:18:54.374Z,21.25
2023-03-30T22:21:25.091Z,19.95
2023-03-30T22:23:54.744Z,19.90
2023-03-30T22:26:23.575Z,18.65
2023-03-30T22:28:53.271Z,17.85
2023-03-30T22:31:22.134Z,19.25
2023-03-30T22:33:50.896Z,19.02
2023-03-30T22:36:21.579Z,19.02
2023-03-30T22:38:51.015Z,18.45
2023-03-30T22:41:24.360Z,19.23
2023-03-30T22:43:55.412Z,20.98
2023-03-30T22:46:24.739Z,19.42
2023-03-30T22:48:55.692Z,18.63
2023-03-30T22:51:26.511Z,19.65
2023-03-30T22:53:56.756Z,19.45
2023-03-30T22:56:25.958Z,21.00
2023-03-30T22:58:57.954Z,21.10
2023-03-30T23:01:29.354Z,22.30
2023-03-30T23:03:59.743Z,22.17
2023-03-30T23:06:28.612Z,21.13
2023-03-30T23:08:56.921Z,21.25
2023-03-30T23:11:26.511Z,21.95
2023-03-30T23:13:57.087Z,20.65
2023-03-30T23:16:27.815Z,20.65
2023-03-30T23:18:56.222Z,20.17
2023-03-30T23:21:24.791Z,20.50
2023-03-30T23:23:53.063Z,19.40
2023-03-30T23:26:21.552Z,23.13
2023-03-30T23:28:49.793Z,18.27
2023-03-30T23:31:19.944Z,23.27
2023-03-30T23:33:48.161Z,21.90
2023-03-30T23:36:19.320Z,20.10
2023-03-30T23:38:48.192Z,22.90
2023-03-30T23:41:18.577Z,22.08
2023-03-30T23:43:47.624Z,18.27
2023-03-30T23:46:16.421Z,22.25
2023-03-30T23:48:46.091Z,18.17
2023-03-30T23:51:14.559Z,23.35
2023-03-30T23:53:42.820Z,21.30
2023-03-30T23:56:13.335Z,19.63
2023-03-30T23:58:41.777Z,21.30
